x

Shumagin Islands - 85nm South Of Sand Point, Ak (46075) Wave Buoy

9:50pm - Mon 25th May 2015 All times are UTC.

  • Sig Wave height 9.8ft
  • Peak Period 11s
  • Average Period 8s
  • Wind
    11mph, 13mph gusts
  • Sea Temp 45°f
  • 空気 Temp 45°f
  • Sea Pressure 1019.9mb

More Historic Weather Station data

Upgrade to MSW Pro to gain access to the past 30 days of data for over 8000 Wavebouys and Weather Stations around the globe.

Join Pro

Comparision Forecast

View Surf forecast
   
Mon 05/25 9:50pm 10ft 11s 8s 11 13 mph 1019.9mb 45f 45f
8:50pm 9ft 13s 8s 11 13 mph 1019.6mb 45f 45f
7:50pm 12ft 12s 9s 11 16 mph 1019.2mb 45f 45f
6:50pm 12ft 12s 9s 13 16 mph 1019.1mb 45f 44f
5:50pm 10.5ft 12s 8s 11 16 mph 1018.7mb 45f 42f
4:50pm 10.5ft 11s 8s 13 20 mph 1018.2mb 45f 44f
3:50pm 10ft 13s 8s 16 18 mph 1017.9mb 45f 44f
2:50pm 11ft 13s 8s 18 22 mph 1017.4mb 45f 43f
1:50pm 11.5ft 13s 8s 18 22 mph 1017.1mb 45f 42f
12:50pm 11ft 11s 8s 18 22 mph 1016.8mb 45f 42f
11:50am 11.5ft 12s 8s 16 22 mph 1016.6mb 45f 43f
10:50am 10.5ft 11s 8s 13 20 mph 1016.7mb 45f 43f
9:50am 10ft 11s 8s 16 20 mph 1016.3mb 45f 44f
8:50am 12ft 12s 8s 16 20 mph 1016.1mb 45f 44f
7:50am 9.5ft 10s 8s 16 20 mph 1015.8mb 45f 44f
6:50am 11.5ft 11s 8s 11 16 mph 1015.3mb 44f 43f
5:50am 12ft 13s 9s 13 18 mph 1014.8mb 45f 44f
4:50am 12ft 12s 9s 13 18 mph 1014.4mb 45f 44f
3:50am 11ft 12s 8s 16 20 mph 1014.1mb 45f 45f
2:50am 11ft 12s 8s 13 18 mph 1014mb 45f 44f
1:50am 12ft 12s 8s 16 20 mph 1014mb 45f 45f
12:50am 11.5ft 12s 8s 13 18 mph 1013.7mb 45f 45f
Sun 05/24 11:50pm 12ft 12s 8s 13 18 mph 1013.6mb 44f 45f
10:50pm 13ft 12s 8s 13 18 mph 1013.7mb 44f 45f
9:50pm 12ft 12s 8s 11 13 mph 1013.6mb 44f 45f
8:50pm 11ft 11s 8s 18 27 mph 1013.2mb 44f 45f
7:50pm 12ft 11s 8s 13 18 mph 1013.1mb 44f 45f
6:50pm 12ft 11s 8s 13 18 mph 1012.9mb 44f 44f
5:50pm 11.5ft 12s 8s 16 20 mph 1012.5mb 44f 43f
4:50pm 11ft 12s 8s 11 16 mph 1012.3mb 44f 45f
3:50pm 12ft 11s 8s 13 18 mph 1012mb 44f 43f
2:50pm 11ft 13s 8s 16 18 mph 1011.5mb 44f 43f
1:50pm 12ft 12s 8s 20 25 mph 1011.3mb 44f 42f
12:50pm 11ft 12s 7s 13 18 mph 1011.3mb 43f 42f
11:50am 10ft 11s 7s 18 25 mph 1011mb 43f 43f
10:50am 11.5ft 11s 8s 16 20 mph 1011mb 43f 43f
9:50am 10.5ft 11s 7s 18 20 mph 1010.7mb 43f 42f
8:50am 13ft 11s 8s 16 20 mph 1010.6mb 43f 43f
7:50am 12ft 10s 7s 20 25 mph 1010.3mb 43f 43f
6:50am 13ft 11s 7s 18 22 mph 1009.8mb 43f 44f
5:50am 12.5ft 11s 7s 18 22 mph 1009.1mb 43f 44f
4:50am 14ft 11s 8s 18 25 mph 1008.4mb 44f 44f
3:50am 13ft 9s 7s 20 25 mph 1007.8mb 44f 44f
2:50am 14ft 12s 8s 18 22 mph 1007.2mb 44f 44f
1:50am 13.5ft 11s 7s 22 27 mph 1006.7mb 44f 45f
12:50am 14.5ft 11s 8s 20 27 mph 1006.2mb 43f 44f
Sat 05/23 11:50pm 15.5ft 10s 8s 20 27 mph 1005.7mb 43f 45f
10:50pm 14ft 11s 8s 22 27 mph 1004.9mb 43f 45f
9:50pm 13.5ft 11s 8s 20 25 mph 1004.2mb 43f 45f
8:50pm 14.5ft 12s 8s 22 27 mph 1003.3mb 43f 45f
7:50pm 16ft 11s 8s 25 31 mph 1002.4mb 43f 42f
6:50pm 14ft 10s 7s 22 29 mph 1001.7mb 43f 43f
5:50pm 16.5ft 10s 8s 25 29 mph 1000.6mb 43f 43f
4:50pm 14ft 11s 7s 25 31 mph 999.9mb 43f 43f
3:50pm 15ft 9s 7s 29 34 mph 999.1mb 43f 43f
2:50pm 13.5ft 8s 7s 31 38 mph 999.1mb 43f 43f
1:50pm 13ft 8s 6s 34 40 mph 999.6mb 43f 42f
12:50pm 12ft 8s 6s 34 43 mph 1000.3mb 43f 42f
11:50am 12ft 8s 6s 34 43 mph 1000.8mb 44f 43f
10:50am 10ft 7s 6s 34 40 mph 1001.6mb 44f 42f
9:50am 9ft 7s 5s 29 38 mph 1002.3mb 44f 42f
8:50am 7.5ft 6s 5s 34 40 mph 1003mb 44f 42f
7:50am 7ft 6s 5s 29 36 mph 1003.4mb 44f 42f
6:50am 6.5ft 6s 5s 25 31 mph 1003.5mb 44f 43f
5:50am 6ft 5s 5s 25 29 mph 1003.6mb 44f 43f
4:50am 5.5ft 5s 5s 20 29 mph 1004mb 45f 43f
3:50am 5ft 8s 5s 20 27 mph 1004.2mb 45f 44f
2:50am 4.5ft 10s 5s 20 25 mph 1004.8mb 45f 44f
1:50am 4.5ft 10s 6s 18 25 mph 1005.5mb 46f 45f
12:50am 4.5ft 9s 6s 11 13 mph 1006mb 46f 45f
Fri 05/22 11:50pm 4.5ft 10s 6s 13 16 mph 1006.8mb 46f 45f
10:50pm 4.5ft 8s 7s 9 11 mph 1007mb 46f 45f
9:50pm 5ft 9s 7s 11 13 mph 1008.1mb 46f 45f
8:50pm 5ft 10s 7s 9 11 mph 1008.7mb 46f 44f
7:50pm 5ft 11s 7s 4 7 mph 1009.2mb 46f 45f
6:50pm 5ft 10s 7s 7
mph
1010.2mb 46f 46f
5:50pm 5ft 8s 7s 4
mph
1010.9mb 46f 44f
4:50pm 5.5ft 8s 8s 4
mph
1011.4mb 46f 44f
3:50pm 5ft 9s 7s 7
mph
1012mb 46f 44f
2:50pm 5.5ft 10s 8s 2 4 mph 1012.4mb 45f 44f
1:50pm 6ft 9s 7s 4
mph
1012.9mb 45f 44f
12:50pm 6.5ft 9s 7s 7 9 mph 1013.3mb 45f 44f
11:50am 6ft 8s 7s 7 9 mph 1014mb 45f 43f
10:50am 5.5ft 9s 7s 7 9 mph 1014.8mb 45f 43f
9:50am 6.5ft 9s 7s 7
mph
1015.4mb 45f 43f
8:50am 7ft 9s 7s  -  2 mph 1016.3mb 46f 43f
7:50am 7ft 10s 7s 2
mph
1016.4mb 46f 43f
6:50am 6ft 10s 7s 7
mph
1016.3mb 46f 43f
5:50am 7ft 10s 8s 4 7 mph 1016.3mb 46f 44f
4:50am 6.5ft 11s 8s 2 4 mph 1016mb 46f 45f
3:50am 6ft 11s 7s 7 9 mph 1016mb 46f 45f
2:50am 6ft 11s 7s 9 11 mph 1016.3mb 46f 45f
1:50am 6ft 11s 7s 7 9 mph 1016.4mb 46f 45f
12:50am 6ft 11s 7s 7 9 mph 1016.5mb 46f 46f
Thu 05/21 11:50pm 6ft 11s 7s 11 13 mph 1016.6mb 46f 45f
10:50pm 7ft 9s 7s 7 9 mph 1016.7mb 46f 45f